createdAt,value
2022-08-26T00:01:52.725Z,16.59
2022-08-26T00:04:21.523Z,16.58
2022-08-26T00:06:48.596Z,16.57
2022-08-26T00:09:16.225Z,16.56
2022-08-26T00:11:47.209Z,16.58
2022-08-26T00:14:16.347Z,16.60
2022-08-26T00:16:48.082Z,16.59
2022-08-26T00:19:20.488Z,16.59
2022-08-26T00:21:49.687Z,16.57
2022-08-26T00:24:19.403Z,16.60
2022-08-26T00:26:46.997Z,16.59
2022-08-26T00:29:14.974Z,16.58
2022-08-26T00:31:42.886Z,16.57
2022-08-26T00:34:12.769Z,16.54
2022-08-26T00:36:41.004Z,16.51
2022-08-26T00:39:08.918Z,16.51
2022-08-26T00:41:39.889Z,16.50
2022-08-26T00:44:08.091Z,16.49
2022-08-26T00:46:40.523Z,16.46
2022-08-26T00:49:18.316Z,16.44
2022-08-26T00:51:53.472Z,16.39
2022-08-26T00:54:23.184Z,16.36
2022-08-26T00:57:00.318Z,16.37
2022-08-26T00:59:32.708Z,16.35
2022-08-26T01:02:02.931Z,16.32
2022-08-26T01:04:33.599Z,16.29
2022-08-26T01:07:01.596Z,16.29
2022-08-26T01:09:30.110Z,16.28
2022-08-26T01:12:00.482Z,16.31
2022-08-26T01:14:35.017Z,16.28
2022-08-26T01:17:07.219Z,16.27
2022-08-26T01:19:46.981Z,16.25
2022-08-26T01:22:46.238Z,16.24
2022-08-26T01:25:14.734Z,16.25
2022-08-26T01:27:42.255Z,16.24
2022-08-26T01:30:12.326Z,16.20
2022-08-26T01:32:40.596Z,16.21
2022-08-26T01:35:08.826Z,16.18
2022-08-26T01:37:39.011Z,16.18
2022-08-26T01:40:11.280Z,16.16
2022-08-26T01:42:40.704Z,16.15
2022-08-26T01:45:12.594Z,16.14
2022-08-26T01:47:41.421Z,16.14
2022-08-26T01:50:13.301Z,16.13
2022-08-26T01:52:49.982Z,16.12
2022-08-26T01:55:32.146Z,16.14
2022-08-26T01:58:04.851Z,16.12
2022-08-26T02:00:34.253Z,16.11
2022-08-26T02:03:18.109Z,16.10
2022-08-26T02:05:59.337Z,16.08
2022-08-26T02:08:36.961Z,16.06
2022-08-26T02:11:05.079Z,16.06
2022-08-26T02:13:38.231Z,16.06
2022-08-26T02:16:05.864Z,16.02
2022-08-26T02:18:38.582Z,16.04
2022-08-26T02:21:07.648Z,16.05
2022-08-26T02:23:35.831Z,16.01
2022-08-26T02:26:19.179Z,16.01
2022-08-26T02:28:56.519Z,15.99
2022-08-26T02:31:24.652Z,15.97
2022-08-26T02:33:51.622Z,15.95
2022-08-26T02:36:21.331Z,15.95
2022-08-26T02:38:48.276Z,15.93
2022-08-26T02:41:15.211Z,15.96
2022-08-26T02:43:44.987Z,15.93
2022-08-26T02:46:11.942Z,15.90
2022-08-26T02:48:48.485Z,15.90
2022-08-26T02:51:15.608Z,15.91
2022-08-26T02:53:43.708Z,15.88
2022-08-26T02:56:10.935Z,15.87
2022-08-26T02:58:37.864Z,15.84
2022-08-26T03:01:05.337Z,15.83
2022-08-26T03:03:33.643Z,15.80
2022-08-26T03:06:01.209Z,15.76
2022-08-26T03:08:28.166Z,15.75
2022-08-26T03:10:55.081Z,15.75
2022-08-26T03:13:21.990Z,15.77
2022-08-26T03:15:49.179Z,15.74
2022-08-26T03:18:16.289Z,15.76
2022-08-26T03:20:43.979Z,15.73
2022-08-26T03:23:12.560Z,15.72
2022-08-26T03:25:39.978Z,15.69
2022-08-26T03:28:07.768Z,15.66
2022-08-26T03:30:45.305Z,15.65
2022-08-26T03:33:14.037Z,15.62
2022-08-26T03:35:43.583Z,15.60
2022-08-26T03:38:11.390Z,15.58
2022-08-26T03:40:39.297Z,15.59
2022-08-26T03:43:09.493Z,15.56
2022-08-26T03:45:37.539Z,15.55
2022-08-26T03:48:05.328Z,15.54
2022-08-26T03:50:34.284Z,15.53
2022-08-26T03:53:03.369Z,15.51
2022-08-26T03:55:32.670Z,15.52
2022-08-26T03:58:01.101Z,15.53
2022-08-26T04:00:28.594Z,15.53
2022-08-26T04:02:55.642Z,15.54
2022-08-26T04:05:23.735Z,15.57
2022-08-26T04:07:51.963Z,15.55
2022-08-26T04:10:28.582Z,15.55
2022-08-26T04:12:56.262Z,15.53
2022-08-26T04:15:26.948Z,15.51
2022-08-26T04:17:54.002Z,15.51
2022-08-26T04:20:22.926Z,15.44
2022-08-26T04:22:50.762Z,15.42
2022-08-26T04:25:18.661Z,15.43
2022-08-26T04:27:48.313Z,15.42
2022-08-26T04:30:16.701Z,15.42
2022-08-26T04:32:43.919Z,15.40
2022-08-26T04:35:10.932Z,15.39
2022-08-26T04:37:38.197Z,15.39
2022-08-26T04:40:06.536Z,15.34
2022-08-26T04:42:33.692Z,15.37
2022-08-26T04:45:01.338Z,15.37
2022-08-26T04:47:32.661Z,15.39
2022-08-26T04:50:00.130Z,15.38
2022-08-26T04:52:29.079Z,15.38
2022-08-26T04:54:57.893Z,15.36
2022-08-26T04:57:24.788Z,15.32
2022-08-26T04:59:51.632Z,15.31
2022-08-26T05:02:18.510Z,15.31
2022-08-26T05:04:45.835Z,15.31
2022-08-26T05:07:12.938Z,15.33
2022-08-26T05:09:40.852Z,15.34
2022-08-26T05:12:08.241Z,15.34
2022-08-26T05:14:36.021Z,15.30
2022-08-26T05:17:03.247Z,15.30
2022-08-26T05:19:31.697Z,15.32
2022-08-26T05:21:59.994Z,15.30
2022-08-26T05:24:26.874Z,15.31
2022-08-26T05:26:54.379Z,15.40
2022-08-26T05:29:23.628Z,15.36
2022-08-26T05:31:52.064Z,15.32
2022-08-26T05:34:19.269Z,15.29
2022-08-26T05:36:47.546Z,15.33
2022-08-26T05:39:14.392Z,15.31
2022-08-26T05:41:43.228Z,15.29
2022-08-26T05:44:14.879Z,15.30
2022-08-26T05:46:44.833Z,15.30
2022-08-26T05:49:13.760Z,15.33
2022-08-26T05:51:47.524Z,15.33
2022-08-26T05:54:21.284Z,15.33
2022-08-26T05:56:50.804Z,15.32
2022-08-26T05:59:21.232Z,15.28
2022-08-26T06:01:52.254Z,15.31
2022-08-26T06:04:20.049Z,15.29
2022-08-26T06:06:47.233Z,15.29
2022-08-26T06:09:14.540Z,15.32
2022-08-26T06:11:44.510Z,15.32
2022-08-26T06:14:11.772Z,15.34
2022-08-26T06:16:43.910Z,15.34
2022-08-26T06:19:13.604Z,15.33
2022-08-26T06:21:42.237Z,15.39
2022-08-26T06:24:32.210Z,15.33
2022-08-26T06:27:02.516Z,15.32
2022-08-26T06:29:34.430Z,15.34
2022-08-26T06:32:04.286Z,15.34
2022-08-26T06:34:31.609Z,15.32
2022-08-26T06:37:02.721Z,15.36
2022-08-26T06:39:31.464Z,15.36
2022-08-26T06:41:59.562Z,15.33
2022-08-26T06:44:27.252Z,15.32
2022-08-26T06:46:54.300Z,15.31
2022-08-26T06:49:26.616Z,15.36
2022-08-26T06:52:00.869Z,15.32
2022-08-26T06:54:31.622Z,15.33
2022-08-26T06:56:58.896Z,15.37
2022-08-26T06:59:26.017Z,15.34
2022-08-26T07:01:54.910Z,15.36
2022-08-26T07:04:23.262Z,15.36
2022-08-26T07:06:52.985Z,15.34
2022-08-26T07:09:21.982Z,15.33
2022-08-26T07:11:51.346Z,15.33
2022-08-26T07:14:19.296Z,15.32
2022-08-26T07:16:49.683Z,15.32
2022-08-26T07:19:30.482Z,15.33
2022-08-26T07:22:04.791Z,15.33
2022-08-26T07:24:35.440Z,15.33
2022-08-26T07:27:05.651Z,15.34
2022-08-26T07:29:33.329Z,15.39
2022-08-26T07:32:00.546Z,15.39
2022-08-26T07:34:27.896Z,15.41
2022-08-26T07:36:57.025Z,15.40
2022-08-26T07:39:25.214Z,15.42
2022-08-26T07:41:52.950Z,15.43
2022-08-26T07:44:19.964Z,15.43
2022-08-26T07:46:52.368Z,15.45
2022-08-26T07:49:22.222Z,15.45
2022-08-26T07:51:50.391Z,15.44
2022-08-26T07:54:17.948Z,15.44
2022-08-26T07:56:46.369Z,15.45
2022-08-26T07:59:15.128Z,15.44
2022-08-26T08:01:44.731Z,15.44
2022-08-26T08:04:17.356Z,15.43
2022-08-26T08:06:45.622Z,15.44
2022-08-26T08:09:15.599Z,15.43
2022-08-26T08:11:44.966Z,15.44
2022-08-26T08:14:13.106Z,15.47
2022-08-26T08:16:45.904Z,15.52
2022-08-26T08:19:14.829Z,15.48
2022-08-26T08:21:43.362Z,15.52
2022-08-26T08:24:11.315Z,15.49
2022-08-26T08:26:38.398Z,15.55
2022-08-26T08:29:08.035Z,15.53
2022-08-26T08:31:56.628Z,15.53
2022-08-26T08:34:24.824Z,15.51
2022-08-26T08:36:53.674Z,15.54
2022-08-26T08:39:22.432Z,15.54
2022-08-26T08:42:16.096Z,15.57
2022-08-26T08:44:51.952Z,15.59
2022-08-26T08:47:35.928Z,15.60
2022-08-26T08:50:26.115Z,15.59
2022-08-26T08:53:18.148Z,15.58
2022-08-26T08:56:17.310Z,15.58
2022-08-26T08:59:07.692Z,15.56
2022-08-26T09:01:55.805Z,15.56
2022-08-26T09:04:40.993Z,15.56
2022-08-26T09:07:13.697Z,15.59
2022-08-26T09:09:55.748Z,15.60
2022-08-26T09:12:30.096Z,15.60
2022-08-26T09:15:20.612Z,15.61
2022-08-26T09:18:11.023Z,15.60
2022-08-26T09:20:54.283Z,15.62
2022-08-26T09:23:21.592Z,15.60
2022-08-26T09:28:29.458Z,15.63
2022-08-26T09:31:23.862Z,15.68
2022-08-26T09:34:10.504Z,15.68
2022-08-26T09:36:42.096Z,15.70
2022-08-26T09:39:24.340Z,15.74
2022-08-26T09:42:25.449Z,15.73
2022-08-26T09:45:10.574Z,15.73
2022-08-26T09:47:40.732Z,15.72
2022-08-26T09:50:28.966Z,15.75
2022-08-26T09:53:09.965Z,15.77
2022-08-26T09:55:46.028Z,15.77
2022-08-26T09:58:15.140Z,15.80
2022-08-26T10:00:56.757Z,15.81
2022-08-26T10:03:31.378Z,15.83
2022-08-26T10:06:21.671Z,15.86
2022-08-26T10:09:08.361Z,15.84
2022-08-26T10:11:51.765Z,15.85
2022-08-26T10:14:39.867Z,15.89
2022-08-26T10:17:26.706Z,15.88
2022-08-26T10:20:22.716Z,15.90
2022-08-26T10:23:01.721Z,15.88
2022-08-26T10:25:37.391Z,15.88
2022-08-26T10:28:35.653Z,15.89
2022-08-26T10:31:27.889Z,15.88
2022-08-26T10:33:58.800Z,15.88
2022-08-26T10:37:13.522Z,15.88
2022-08-26T10:39:43.909Z,15.92
2022-08-26T10:42:38.131Z,15.91
2022-08-26T10:45:15.182Z,15.90
2022-08-26T10:47:50.527Z,15.88
2022-08-26T10:50:18.909Z,15.88
2022-08-26T10:53:08.762Z,15.90
2022-08-26T10:56:00.272Z,15.89
2022-08-26T10:58:38.644Z,15.87
2022-08-26T11:01:40.840Z,15.92
2022-08-26T11:04:16.923Z,15.88
2022-08-26T11:06:46.938Z,15.88
2022-08-26T11:09:45.005Z,15.89
2022-08-26T11:12:37.362Z,15.91
2022-08-26T11:15:13.611Z,15.93
2022-08-26T11:17:46.522Z,15.96
2022-08-26T11:20:32.312Z,15.97
2022-08-26T11:23:27.238Z,15.98
2022-08-26T11:25:59.736Z,15.99
2022-08-26T11:28:45.086Z,15.98
2022-08-26T11:31:37.906Z,15.98
2022-08-26T11:34:08.791Z,15.98
2022-08-26T11:36:46.790Z,16.00
2022-08-26T11:39:28.951Z,16.02
2022-08-26T11:42:15.701Z,16.01
2022-08-26T11:44:49.390Z,16.00
2022-08-26T11:47:24.996Z,16.01
2022-08-26T11:50:17.706Z,16.04
2022-08-26T11:52:59.185Z,16.07
2022-08-26T11:55:26.193Z,16.05
2022-08-26T11:58:00.120Z,16.07
2022-08-26T12:00:31.433Z,16.05
2022-08-26T12:03:05.721Z,16.06
2022-08-26T12:05:43.430Z,16.08
2022-08-26T12:08:24.833Z,16.08
2022-08-26T12:11:09.840Z,16.11
2022-08-26T12:13:39.243Z,16.12
2022-08-26T12:16:07.623Z,16.16
2022-08-26T12:18:37.834Z,16.74
2022-08-26T12:21:26.680Z,16.44
2022-08-26T12:23:56.980Z,16.34
2022-08-26T12:26:42.013Z,16.31
2022-08-26T12:29:26.828Z,16.31
2022-08-26T12:32:17.499Z,16.32
2022-08-26T12:34:47.335Z,16.31
2022-08-26T12:37:15.539Z,16.33
2022-08-26T12:39:44.950Z,16.33
2022-08-26T12:42:17.345Z,16.35
2022-08-26T12:45:03.790Z,16.34
2022-08-26T12:47:43.501Z,16.36
2022-08-26T12:50:32.502Z,16.41
2022-08-26T12:53:11.377Z,16.44
2022-08-26T12:55:51.672Z,16.44
2022-08-26T12:58:18.555Z,16.45
2022-08-26T13:00:54.218Z,16.46
2022-08-26T13:03:45.376Z,16.45
2022-08-26T13:06:15.597Z,16.45
2022-08-26T13:09:00.299Z,16.48
2022-08-26T13:11:29.063Z,16.50
2022-08-26T13:14:07.593Z,16.52
2022-08-26T13:16:36.176Z,16.50
2022-08-26T13:19:10.055Z,16.51
2022-08-26T13:21:58.082Z,16.80
2022-08-26T13:24:24.998Z,16.67
2022-08-26T13:26:52.049Z,16.66
2022-08-26T13:29:19.563Z,16.64
2022-08-26T13:31:48.056Z,16.61
2022-08-26T13:34:19.179Z,16.62
2022-08-26T13:36:47.534Z,16.61
2022-08-26T13:39:14.407Z,16.63
2022-08-26T13:41:42.341Z,16.63
2022-08-26T13:44:10.429Z,16.66
2022-08-26T13:46:37.423Z,16.65
2022-08-26T13:49:04.419Z,16.67
2022-08-26T13:51:31.745Z,16.67
2022-08-26T13:53:59.124Z,16.67
2022-08-26T13:56:29.619Z,16.69
2022-08-26T13:58:58.074Z,16.69
2022-08-26T14:01:26.140Z,16.70
2022-08-26T14:03:53.222Z,16.73
2022-08-26T14:06:20.842Z,16.74
2022-08-26T14:08:48.608Z,16.78
2022-08-26T14:11:15.653Z,16.78
2022-08-26T14:13:42.762Z,16.79
2022-08-26T14:16:16.075Z,16.79
2022-08-26T14:18:47.344Z,16.82
2022-08-26T14:21:17.116Z,16.81
2022-08-26T14:23:44.033Z,16.82
2022-08-26T14:26:11.969Z,16.82
2022-08-26T14:28:59.754Z,16.81
2022-08-26T14:31:29.403Z,16.82
2022-08-26T14:34:03.831Z,16.82
2022-08-26T14:36:32.517Z,16.81
2022-08-26T14:39:07.225Z,16.79
2022-08-26T14:41:38.232Z,16.77
2022-08-26T14:44:10.326Z,16.78
2022-08-26T14:46:46.085Z,16.76
2022-08-26T14:49:13.768Z,16.75
2022-08-26T14:51:41.273Z,16.77
2022-08-26T14:54:11.913Z,16.76
2022-08-26T14:56:48.604Z,16.78
2022-08-26T14:59:18.126Z,16.81
2022-08-26T15:01:45.726Z,16.81
2022-08-26T15:04:13.252Z,16.86
2022-08-26T15:06:40.554Z,16.87
2022-08-26T15:09:08.236Z,16.87
2022-08-26T15:11:35.169Z,16.89
2022-08-26T15:14:02.699Z,16.91
2022-08-26T15:16:30.560Z,16.91
2022-08-26T15:18:58.045Z,16.90
2022-08-26T15:21:26.231Z,16.90
2022-08-26T15:23:54.164Z,16.93
2022-08-26T15:26:22.361Z,16.93
2022-08-26T15:28:49.812Z,16.99
2022-08-26T15:31:17.175Z,17.03
2022-08-26T15:33:44.252Z,17.09
2022-08-26T15:36:12.038Z,17.06
2022-08-26T15:38:42.420Z,17.07
2022-08-26T15:41:10.351Z,17.06
2022-08-26T15:43:38.377Z,17.07
2022-08-26T15:46:10.417Z,17.05
2022-08-26T15:48:38.412Z,17.06
2022-08-26T15:51:07.157Z,17.06
2022-08-26T15:53:35.673Z,17.05
2022-08-26T15:56:02.829Z,17.04
2022-08-26T15:58:30.250Z,17.04
2022-08-26T16:00:57.504Z,17.01
2022-08-26T16:03:25.917Z,17.00
2022-08-26T16:05:53.561Z,17.02
2022-08-26T16:08:20.936Z,17.04
2022-08-26T16:10:50.529Z,17.04
2022-08-26T16:13:19.961Z,17.03
2022-08-26T16:15:49.870Z,17.01
2022-08-26T16:18:17.199Z,17.04
2022-08-26T16:21:12.391Z,17.02
2022-08-26T16:23:37.472Z,16.99
2022-08-26T16:26:12.163Z,17.00
2022-08-26T16:28:39.745Z,16.94
2022-08-26T16:31:08.333Z,16.93
2022-08-26T16:33:35.347Z,16.93
2022-08-26T16:36:02.408Z,16.93
2022-08-26T16:38:29.485Z,16.91
2022-08-26T16:40:56.666Z,16.89
2022-08-26T16:43:24.147Z,16.89
2022-08-26T16:45:51.183Z,16.90
2022-08-26T16:48:18.224Z,16.90
2022-08-26T16:50:45.307Z,16.89
2022-08-26T16:55:45.934Z,16.90
2022-08-26T16:58:12.944Z,16.90
2022-08-26T17:00:39.993Z,16.88
2022-08-26T17:03:07.054Z,16.86
2022-08-26T17:05:34.298Z,16.86
2022-08-26T17:08:01.163Z,16.84
2022-08-26T17:10:29.567Z,16.86
2022-08-26T17:12:56.805Z,16.85
2022-08-26T17:15:23.933Z,16.84
2022-08-26T17:17:54.765Z,16.84
2022-08-26T17:20:23.847Z,16.81
2022-08-26T17:22:52.569Z,16.81
2022-08-26T17:25:29.343Z,16.80
2022-08-26T17:30:29.742Z,16.78
2022-08-26T17:32:58.096Z,16.80
2022-08-26T17:35:26.584Z,16.77
2022-08-26T17:37:56.166Z,16.78
2022-08-26T17:40:25.523Z,16.77
2022-08-26T17:42:52.593Z,16.79
2022-08-26T17:47:53.772Z,16.78
2022-08-26T17:50:21.297Z,16.80
2022-08-26T17:52:48.337Z,16.79
2022-08-26T17:55:18.102Z,16.77
2022-08-26T17:57:53.420Z,16.79
2022-08-26T18:00:23.525Z,16.79
2022-08-26T18:02:50.462Z,16.79
2022-08-26T18:05:18.089Z,16.77
2022-08-26T18:07:45.216Z,16.79
2022-08-26T18:10:15.463Z,16.80
2022-08-26T18:12:42.744Z,16.82
2022-08-26T18:15:11.502Z,16.84
2022-08-26T18:17:39.910Z,16.82
2022-08-26T18:20:09.601Z,16.85
2022-08-26T18:22:36.780Z,16.87
2022-08-26T18:25:05.398Z,16.87
2022-08-26T18:27:32.573Z,16.90
2022-08-26T18:30:00.065Z,16.88
2022-08-26T18:32:27.199Z,16.88
2022-08-26T18:34:54.136Z,16.87
2022-08-26T18:37:21.114Z,16.89
2022-08-26T18:39:48.695Z,16.86
2022-08-26T18:42:15.658Z,16.86
2022-08-26T18:44:42.530Z,16.85
2022-08-26T18:47:09.610Z,16.81
2022-08-26T18:49:36.588Z,16.77
2022-08-26T18:52:04.340Z,16.76
2022-08-26T18:54:31.361Z,16.75
2022-08-26T18:56:58.718Z,16.71
2022-08-26T18:59:29.684Z,16.72
2022-08-26T19:01:57.917Z,16.69
2022-08-26T19:04:25.196Z,16.67
2022-08-26T19:06:53.123Z,16.66
2022-08-26T19:09:20.948Z,16.64
2022-08-26T19:11:49.659Z,16.62
2022-08-26T19:14:17.740Z,16.59
2022-08-26T19:16:48.376Z,16.58
2022-08-26T19:19:15.829Z,16.59
2022-08-26T19:21:43.091Z,16.58
2022-08-26T19:24:15.601Z,16.58
2022-08-26T19:26:57.973Z,16.57
2022-08-26T19:29:28.879Z,16.55
2022-08-26T19:31:56.605Z,16.57
2022-08-26T19:34:24.155Z,16.60
2022-08-26T19:36:53.239Z,16.59
2022-08-26T19:39:21.292Z,16.59
2022-08-26T19:41:48.816Z,16.59
2022-08-26T19:44:37.345Z,16.58
2022-08-26T19:47:05.885Z,16.57
2022-08-26T19:49:33.567Z,16.58
2022-08-26T19:52:02.414Z,16.58
2022-08-26T19:54:29.332Z,16.59
2022-08-26T19:56:56.393Z,16.58
2022-08-26T19:59:23.220Z,16.58
2022-08-26T20:02:00.481Z,16.56
2022-08-26T20:04:30.250Z,16.58
2022-08-26T20:07:00.231Z,16.57
2022-08-26T20:09:32.703Z,16.56
2022-08-26T20:12:00.363Z,16.57
2022-08-26T20:14:28.371Z,16.58
2022-08-26T20:16:55.834Z,16.57
2022-08-26T20:19:41.504Z,16.57
2022-08-26T20:22:08.784Z,16.60
2022-08-26T20:24:35.996Z,16.57
2022-08-26T20:27:07.673Z,16.56
2022-08-26T20:29:35.880Z,16.56
2022-08-26T20:32:03.357Z,16.56
2022-08-26T20:34:32.386Z,16.56
2022-08-26T20:36:59.663Z,16.56
2022-08-26T20:39:29.597Z,16.56
2022-08-26T20:41:58.011Z,16.55
2022-08-26T20:44:25.688Z,16.54
2022-08-26T20:46:53.229Z,16.52
2022-08-26T20:49:20.193Z,16.54
2022-08-26T20:51:51.480Z,16.52
2022-08-26T20:54:27.509Z,16.54
2022-08-26T20:56:56.965Z,16.52
2022-08-26T20:59:24.468Z,16.54
2022-08-26T21:01:51.354Z,16.52
2022-08-26T21:04:21.147Z,16.51
2022-08-26T21:06:52.323Z,16.51
2022-08-26T21:09:22.953Z,16.52
2022-08-26T21:11:50.474Z,16.48
2022-08-26T21:14:18.786Z,16.48
2022-08-26T21:16:46.733Z,16.49
2022-08-26T21:19:15.584Z,16.50
2022-08-26T21:21:42.610Z,16.49
2022-08-26T21:24:09.561Z,16.49
2022-08-26T21:26:37.161Z,16.48
2022-08-26T21:29:04.339Z,16.48
2022-08-26T21:31:32.232Z,16.47
2022-08-26T21:33:59.810Z,16.48
2022-08-26T21:36:27.103Z,16.48
2022-08-26T21:38:57.184Z,16.48
2022-08-26T21:41:24.495Z,16.50
2022-08-26T21:43:53.676Z,16.48
2022-08-26T21:46:22.708Z,16.48
2022-08-26T21:48:52.211Z,16.47
2022-08-26T21:51:21.368Z,16.47
2022-08-26T21:53:48.569Z,16.46
2022-08-26T21:56:18.080Z,16.46
2022-08-26T21:58:46.306Z,16.45
2022-08-26T22:01:15.867Z,16.47
2022-08-26T22:03:47.316Z,16.48
2022-08-26T22:06:19.628Z,16.49
2022-08-26T22:08:46.892Z,16.48
2022-08-26T22:11:14.400Z,16.49
2022-08-26T22:13:42.897Z,16.49
2022-08-26T22:16:11.346Z,16.50
2022-08-26T22:18:39.034Z,16.49
2022-08-26T22:21:08.757Z,16.50
2022-08-26T22:23:37.533Z,16.50
2022-08-26T22:26:06.747Z,16.49
2022-08-26T22:28:33.988Z,16.50
2022-08-26T22:31:02.006Z,16.51
2022-08-26T22:33:29.477Z,16.52
2022-08-26T22:35:56.405Z,16.52
2022-08-26T22:38:24.016Z,16.55
2022-08-26T22:40:56.571Z,16.51
2022-08-26T22:43:28.770Z,16.55
2022-08-26T22:45:56.685Z,16.57
2022-08-26T22:48:26.510Z,16.57
2022-08-26T22:51:00.023Z,16.55
2022-08-26T22:53:27.430Z,16.55
2022-08-26T22:55:54.484Z,16.54
2022-08-26T22:58:30.223Z,16.54
2022-08-26T23:00:59.338Z,16.52
2022-08-26T23:03:27.680Z,16.55
2022-08-26T23:05:55.627Z,16.52
2022-08-26T23:08:23.647Z,16.52
2022-08-26T23:10:51.838Z,16.52
2022-08-26T23:13:20.114Z,16.48
2022-08-26T23:15:47.134Z,16.46
2022-08-26T23:18:15.351Z,16.46
2022-08-26T23:20:42.912Z,16.49
2022-08-26T23:23:09.836Z,16.51
2022-08-26T23:25:36.984Z,16.49
2022-08-26T23:28:05.362Z,16.50
2022-08-26T23:30:33.115Z,16.49
2022-08-26T23:33:00.460Z,16.47
2022-08-26T23:35:28.721Z,16.45
2022-08-26T23:37:57.819Z,16.47
2022-08-26T23:40:28.237Z,16.46
2022-08-26T23:42:57.160Z,16.47
2022-08-26T23:45:25.621Z,16.45
2022-08-26T23:47:54.035Z,16.45
2022-08-26T23:50:23.446Z,16.44
2022-08-26T23:53:09.085Z,16.46
2022-08-26T23:55:37.413Z,16.45
2022-08-26T23:58:05.426Z,16.45
